Time;durP1;ratioP1;P1;durP2;ratioP2;P2;SDS_P1;SDS_P2;PMS_P1;PMS_P2;Temp;Humidity;BMP_temperature;BMP_pressure;BME280_temperature;BME280_humidity;BME280_pressure;Samples;Min_cycle;Max_cycle;Signal;HPM_P1;HPM_P2
2021/08/25 00:01:10;;;;;;;5.90;3.88;;;;;;;9.96;100.00;102530.13;4972463;28;20045;-80
2021/08/25 00:03:36;;;;;;;7.68;3.80;;;;;;;10.02;100.00;102524.50;4951341;28;20089;-80
2021/08/25 00:06:01;;;;;;;7.05;3.85;;;;;;;10.08;100.00;102529.34;4989773;28;20084;-81
2021/08/25 00:08:27;;;;;;;8.25;3.72;;;;;;;10.13;100.00;102529.88;4956773;28;20121;-79
2021/08/25 00:10:52;;;;;;;7.13;3.35;;;;;;;10.19;100.00;102528.66;4996220;28;20069;-81
2021/08/25 00:13:18;;;;;;;5.78;3.55;;;;;;;10.20;100.00;102519.81;4973122;28;20038;-81
2021/08/25 00:15:44;;;;;;;6.55;4.05;;;;;;;10.26;100.00;102513.34;4956747;28;20121;-81
2021/08/25 00:18:11;;;;;;;7.10;3.50;;;;;;;10.24;100.00;102500.31;4971666;28;20034;-79
2021/08/25 00:20:39;;;;;;;6.68;3.53;;;;;;;10.25;100.00;102499.38;4957006;28;20492;-79
2021/08/25 00:23:05;;;;;;;6.18;3.63;;;;;;;10.28;100.00;102501.81;4958095;28;20041;-80
2021/08/25 00:25:31;;;;;;;9.98;3.80;;;;;;;10.18;100.00;102487.63;4954111;28;20476;-79
2021/08/25 00:27:57;;;;;;;8.38;3.42;;;;;;;10.26;100.00;102498.44;4968793;28;20046;-78
2021/08/25 00:30:22;;;;;;;5.43;3.25;;;;;;;10.21;100.00;102499.69;4989823;28;20037;-79
2021/08/25 00:32:49;;;;;;;6.75;3.70;;;;;;;10.21;100.00;102495.28;4974869;28;20030;-80
2021/08/25 00:35:14;;;;;;;5.63;3.60;;;;;;;10.16;100.00;102489.50;4953279;28;20041;-80
2021/08/25 00:37:40;;;;;;;9.85;3.67;;;;;;;10.13;100.00;102494.94;4988877;28;20030;-81
2021/08/25 00:40:06;;;;;;;6.28;3.47;;;;;;;10.11;100.00;102492.44;4971551;28;20117;-80
2021/08/25 00:42:32;;;;;;;7.07;4.10;;;;;;;10.09;100.00;102488.22;4972390;28;20042;-80
2021/08/25 00:45:05;;;;;;;9.10;3.90;;;;;;;10.07;100.00;102488.31;4953659;28;20027;-77
2021/08/25 00:47:33;;;;;;;7.53;4.30;;;;;;;10.07;100.00;102484.84;4955075;28;20038;-79
2021/08/25 00:49:58;;;;;;;6.32;4.07;;;;;;;10.04;100.00;102492.91;4971209;28;20469;-79
2021/08/25 00:52:25;;;;;;;6.43;4.18;;;;;;;10.02;100.00;102482.56;4970984;28;20108;-79
2021/08/25 00:54:50;;;;;;;13.50;4.07;;;;;;;9.97;100.00;102479.38;4951092;28;20045;-80
2021/08/25 00:57:16;;;;;;;6.72;3.58;;;;;;;9.91;100.00;102470.13;4989045;28;20496;-82
2021/08/25 00:59:42;;;;;;;12.93;4.28;;;;;;;9.96;100.00;102479.47;4951986;28;20461;-80
2021/08/25 01:02:29;;;;;;;6.90;3.90;;;;;;;9.93;100.00;102464.81;4983980;28;20045;-80
2021/08/25 01:04:59;;;;;;;9.63;4.25;;;;;;;9.87;100.00;102463.41;4938944;28;20176;-81
2021/08/25 01:07:38;;;;;;;8.18;4.70;;;;;;;9.87;100.00;102458.19;4953258;28;20038;-79
2021/08/25 01:10:22;;;;;;;7.70;4.57;;;;;;;9.84;100.00;102455.75;4985221;28;20040;-80
2021/08/25 01:12:48;;;;;;;9.63;4.90;;;;;;;9.87;100.00;102466.03;4941988;28;20498;-80
2021/08/25 01:15:13;;;;;;;11.90;4.97;;;;;;;9.86;100.00;102466.97;4960092;28;20032;-78
2021/08/25 01:17:39;;;;;;;8.70;4.93;;;;;;;9.78;100.00;102461.38;4972374;28;20045;-78
2021/08/25 01:20:13;;;;;;;6.43;4.28;;;;;;;9.80;100.00;102458.69;4972938;28;20453;-79
2021/08/25 01:22:40;;;;;;;7.45;4.47;;;;;;;9.81;100.00;102452.47;4973532;28;20473;-78
2021/08/25 01:25:08;;;;;;;8.07;3.90;;;;;;;9.87;100.00;102449.44;4958324;28;20034;-78
2021/08/25 01:27:38;;;;;;;7.00;4.10;;;;;;;9.89;100.00;102440.56;4991231;28;20804;-79
2021/08/25 01:30:05;;;;;;;9.05;4.25;;;;;;;9.82;100.00;102430.59;4956212;28;20033;-77
2021/08/25 01:32:36;;;;;;;7.32;4.25;;;;;;;9.91;100.00;102435.22;4944800;28;20027;-78
2021/08/25 01:35:03;;;;;;;7.55;4.47;;;;;;;9.89;100.00;102424.00;4957661;28;20230;-79
2021/08/25 01:37:28;;;;;;;11.10;4.32;;;;;;;9.96;100.00;102406.06;4949261;28;20035;-79
2021/08/25 01:39:56;;;;;;;10.23;4.53;;;;;;;10.12;100.00;102417.22;4973425;28;20038;-80
2021/08/25 01:42:22;;;;;;;7.72;4.32;;;;;;;10.22;100.00;102414.81;4974150;28;20110;-81
2021/08/25 01:44:49;;;;;;;10.15;4.47;;;;;;;10.27;100.00;102415.38;4973821;28;20607;-80
2021/08/25 01:47:15;;;;;;;9.63;4.47;;;;;;;10.26;100.00;102416.28;4967318;28;20042;-79
2021/08/25 01:49:42;;;;;;;8.45;5.00;;;;;;;10.23;100.00;102419.16;4955869;28;20415;-80
2021/08/25 01:52:07;;;;;;;7.65;4.30;;;;;;;10.12;100.00;102412.81;4973644;28;20046;-79
2021/08/25 01:54:33;;;;;;;11.57;4.75;;;;;;;10.09;100.00;102410.41;4972962;28;20072;-79
2021/08/25 01:56:59;;;;;;;7.80;4.25;;;;;;;9.92;100.00;102377.44;4989265;28;20495;-79
2021/08/25 01:59:25;;;;;;;9.25;4.10;;;;;;;10.05;100.00;102400.22;4957640;28;20041;-78
2021/08/25 02:01:51;;;;;;;8.32;4.50;;;;;;;10.01;100.00;102383.84;4958095;28;20072;-80
2021/08/25 02:04:17;;;;;;;6.93;4.20;;;;;;;10.08;100.00;102381.69;4973173;28;20129;-80
2021/08/25 02:06:43;;;;;;;7.25;4.38;;;;;;;10.09;100.00;102380.72;4973106;28;20041;-77
2021/08/25 02:09:08;;;;;;;11.35;4.35;;;;;;;10.20;100.00;102380.00;4973479;28;20034;-79
2021/08/25 02:11:34;;;;;;;8.30;4.30;;;;;;;10.16;100.00;102371.50;4955844;28;20130;-78
2021/08/25 02:14:00;;;;;;;7.80;4.25;;;;;;;10.18;100.00;102377.47;4985618;28;20458;-79
2021/08/25 02:16:25;;;;;;;7.15;4.32;;;;;;;10.20;100.00;102380.00;4991913;28;20042;-79
2021/08/25 02:18:51;;;;;;;7.03;4.43;;;;;;;10.12;100.00;102363.00;4972301;28;20066;-79
2021/08/25 02:21:20;;;;;;;8.13;4.53;;;;;;;10.16;100.00;102366.25;4967457;28;20902;-80
2021/08/25 02:23:46;;;;;;;7.85;4.30;;;;;;;10.11;100.00;102363.97;4967438;28;20042;-80
2021/08/25 02:26:16;;;;;;;7.85;4.55;;;;;;;10.12;100.00;102367.41;4975289;28;20030;-79
2021/08/25 02:28:46;;;;;;;11.00;4.60;;;;;;;10.16;100.00;102363.63;4973300;28;20034;-82
2021/08/25 02:31:13;;;;;;;10.15;3.95;;;;;;;10.09;100.00;102357.97;4966544;28;20046;-81
2021/08/25 02:33:39;;;;;;;7.50;4.10;;;;;;;10.03;100.00;102363.63;4955981;28;20133;-78
2021/08/25 02:36:08;;;;;;;6.00;4.25;;;;;;;10.01;100.00;102356.81;4987481;28;20049;-80
2021/08/25 02:38:35;;;;;;;8.85;4.15;;;;;;;10.00;100.00;102362.97;4985469;28;20030;-80
2021/08/25 02:41:01;;;;;;;7.35;3.88;;;;;;;9.97;100.00;102350.94;4957759;28;20034;-81
2021/08/25 02:43:26;;;;;;;10.43;3.78;;;;;;;9.94;100.00;102362.47;4983139;28;20092;-80
2021/08/25 02:45:52;;;;;;;11.38;4.32;;;;;;;9.87;100.00;102363.81;4974842;28;20121;-80
2021/08/25 02:48:18;;;;;;;9.25;4.75;;;;;;;9.86;100.00;102361.28;4953284;28;20039;-79
2021/08/25 02:50:43;;;;;;;8.43;4.05;;;;;;;9.79;100.00;102355.59;4942696;28;20042;-80
2021/08/25 02:53:09;;;;;;;6.80;4.20;;;;;;;9.74;100.00;102345.44;4980580;28;20038;-80
2021/08/25 02:55:34;;;;;;;10.30;4.80;;;;;;;9.78;100.00;102346.09;4970204;28;20046;-80
2021/08/25 02:58:00;;;;;;;8.05;4.70;;;;;;;9.79;100.00;102337.25;4958673;28;20603;-81
2021/08/25 03:00:26;;;;;;;9.88;4.88;;;;;;;9.82;100.00;102339.69;4955876;28;20029;-80
2021/08/25 03:02:51;;;;;;;10.20;5.20;;;;;;;9.83;100.00;102330.03;4958752;28;21528;-80
2021/08/25 03:05:17;;;;;;;10.25;5.28;;;;;;;9.83;100.00;102332.66;4974416;28;20034;-79
2021/08/25 03:07:43;;;;;;;12.75;6.32;;;;;;;9.85;100.00;102334.25;4974382;28;20530;-79
2021/08/25 03:10:09;;;;;;;7.63;6.07;;;;;;;9.85;100.00;102336.00;4956416;28;20062;-79
2021/08/25 03:12:35;;;;;;;10.52;5.82;;;;;;;9.88;100.00;102323.56;4948814;28;20046;-82
2021/08/25 03:15:01;;;;;;;13.10;7.03;;;;;;;9.88;100.00;102320.09;4967253;28;20449;-80
2021/08/25 03:17:27;;;;;;;9.32;6.30;;;;;;;9.90;100.00;102315.59;4984556;28;20036;-79
2021/08/25 03:19:53;;;;;;;14.38;9.10;;;;;;;9.91;100.00;102314.66;4973002;28;20092;-78
2021/08/25 03:22:18;;;;;;;13.80;7.28;;;;;;;9.98;100.00;102310.66;4952554;28;20041;-80
2021/08/25 03:24:44;;;;;;;15.45;10.05;;;;;;;10.03;100.00;102308.56;4954667;28;20046;-82
2021/08/25 03:27:09;;;;;;;13.75;9.55;;;;;;;10.06;100.00;102302.28;4958096;28;20488;-81
2021/08/25 03:29:35;;;;;;;18.10;10.35;;;;;;;10.12;100.00;102300.06;4958362;28;20831;-82
2021/08/25 03:32:00;;;;;;;17.70;10.23;;;;;;;10.24;100.00;102311.50;4931168;28;20094;-81
2021/08/25 03:34:26;;;;;;;18.30;11.82;;;;;;;10.29;100.00;102312.03;4955188;28;20676;-80
2021/08/25 03:36:52;;;;;;;16.92;11.52;;;;;;;10.33;100.00;102302.19;4987226;28;20484;-79
2021/08/25 03:39:17;;;;;;;18.73;12.73;;;;;;;10.37;100.00;102301.03;4974886;28;20038;-80
2021/08/25 03:41:43;;;;;;;21.50;13.15;;;;;;;10.37;100.00;102298.41;4974748;28;20031;-78
2021/08/25 03:44:08;;;;;;;20.02;12.02;;;;;;;10.33;100.00;102297.78;4984334;28;20037;-79
2021/08/25 03:46:35;;;;;;;21.80;13.90;;;;;;;10.39;100.00;102286.03;4958265;28;20121;-80
2021/08/25 03:49:00;;;;;;;17.70;13.00;;;;;;;10.49;100.00;102291.44;4944123;28;20034;-80
2021/08/25 03:51:26;;;;;;;17.23;12.93;;;;;;;10.58;100.00;102275.06;4957342;28;20482;-79
2021/08/25 03:53:51;;;;;;;19.83;13.43;;;;;;;10.66;100.00;102275.38;4939862;28;20118;-80
2021/08/25 03:56:17;;;;;;;19.63;13.00;;;;;;;10.75;100.00;102281.72;4959401;28;20187;-79
2021/08/25 03:58:42;;;;;;;23.45;12.82;;;;;;;10.71;100.00;102281.13;4956934;28;20511;-81
2021/08/25 04:01:08;;;;;;;18.33;12.48;;;;;;;10.76;100.00;102278.19;4972935;28;20042;-81
2021/08/25 04:03:33;;;;;;;22.15;12.98;;;;;;;10.82;100.00;102275.09;4941613;28;20030;-79
2021/08/25 04:05:59;;;;;;;21.48;13.52;;;;;;;10.87;100.00;102275.63;4961177;28;20037;-79
2021/08/25 04:08:24;;;;;;;20.67;13.70;;;;;;;10.83;100.00;102274.16;4970141;28;20030;-79
2021/08/25 04:10:50;;;;;;;24.23;13.23;;;;;;;10.81;100.00;102269.97;4989010;28;20037;-80
2021/08/25 04:13:15;;;;;;;21.45;13.43;;;;;;;10.77;100.00;102271.97;4940969;28;20034;-81
2021/08/25 04:15:41;;;;;;;24.30;14.77;;;;;;;10.76;100.00;102259.81;4971490;28;20082;-80
2021/08/25 04:18:07;;;;;;;21.77;14.32;;;;;;;10.79;100.00;102258.72;4939894;28;20095;-79
2021/08/25 04:20:32;;;;;;;18.80;13.05;;;;;;;10.74;100.00;102251.22;4953403;28;20074;-80
2021/08/25 04:22:58;;;;;;;21.20;14.13;;;;;;;10.83;100.00;102254.94;4956587;28;20034;-78
2021/08/25 04:25:23;;;;;;;21.50;13.90;;;;;;;10.87;100.00;102254.63;4973438;28;20080;-80
2021/08/25 04:27:50;;;;;;;21.63;14.52;;;;;;;10.85;100.00;102251.25;4957876;28;20419;-79
2021/08/25 04:30:15;;;;;;;25.20;16.63;;;;;;;10.86;100.00;102258.19;4956917;28;20038;-80
2021/08/25 04:32:41;;;;;;;27.55;17.77;;;;;;;11.00;100.00;102251.06;4957161;28;20039;-80
2021/08/25 04:35:07;;;;;;;26.67;17.30;;;;;;;11.03;100.00;102254.31;4965728;28;20061;-80
2021/08/25 04:37:33;;;;;;;30.55;17.60;;;;;;;11.02;100.00;102241.28;4972958;28;20042;-80
2021/08/25 04:39:59;;;;;;;29.70;16.55;;;;;;;10.98;100.00;102242.47;4960622;28;20512;-79
2021/08/25 04:42:24;;;;;;;24.70;16.30;;;;;;;10.95;100.00;102221.72;4941295;28;20034;-81
2021/08/25 04:44:50;;;;;;;28.50;17.65;;;;;;;11.04;100.00;102234.16;4957219;28;20045;-80
2021/08/25 04:47:15;;;;;;;32.50;19.08;;;;;;;11.14;100.00;102227.28;4941972;28;20105;-80
2021/08/25 04:49:41;;;;;;;30.58;18.92;;;;;;;11.18;100.00;102230.50;4938957;28;20114;-78
2021/08/25 04:52:06;;;;;;;29.15;18.42;;;;;;;11.20;100.00;102229.44;4971824;28;20042;-80
2021/08/25 04:54:32;;;;;;;28.85;18.40;;;;;;;11.19;100.00;102213.78;4960169;28;20046;-79
2021/08/25 04:56:58;;;;;;;27.95;17.83;;;;;;;11.25;100.00;102227.31;4941430;28;20026;-79
2021/08/25 04:59:23;;;;;;;30.15;18.58;;;;;;;11.23;100.00;102223.13;4974871;28;20114;-78
2021/08/25 05:01:49;;;;;;;26.27;16.42;;;;;;;11.20;100.00;102212.84;4993871;28;20038;-79
2021/08/25 05:04:14;;;;;;;27.90;18.80;;;;;;;11.25;100.00;102213.34;4992407;28;20117;-80
2021/08/25 05:06:40;;;;;;;33.20;17.00;;;;;;;11.23;100.00;102195.06;4976736;28;20516;-80
2021/08/25 05:09:05;;;;;;;28.88;17.92;;;;;;;11.27;100.00;102207.03;4957983;28;20045;-80
2021/08/25 05:11:31;;;;;;;33.40;19.55;;;;;;;11.31;100.00;102205.00;4981635;28;20085;-81
2021/08/25 05:13:57;;;;;;;37.78;21.92;;;;;;;11.38;100.00;102203.59;4941251;28;20038;-80
2021/08/25 05:16:22;;;;;;;32.90;19.48;;;;;;;11.35;100.00;102192.47;4943766;28;20034;-79
2021/08/25 05:18:48;;;;;;;29.30;18.48;;;;;;;11.40;100.00;102206.13;4975854;28;20072;-80
2021/08/25 05:21:13;;;;;;;36.15;22.88;;;;;;;11.38;100.00;102182.56;4961947;28;20030;-80
2021/08/25 05:23:39;;;;;;;32.90;21.25;;;;;;;11.45;100.00;102194.31;4977875;28;20073;-81
2021/08/25 05:26:05;;;;;;;33.35;20.92;;;;;;;11.52;100.00;102183.31;4977428;28;20031;-81
2021/08/25 05:28:33;;;;;;;41.60;24.00;;;;;;;11.64;100.00;102190.25;4942721;28;20034;-83
2021/08/25 05:30:59;;;;;;;37.03;22.95;;;;;;;11.72;100.00;102190.50;4976016;28;20038;-83
2021/08/25 05:33:24;;;;;;;36.03;21.60;;;;;;;11.77;100.00;102196.25;4962551;28;20038;-83
2021/08/25 05:35:50;;;;;;;38.13;22.95;;;;;;;11.78;100.00;102170.78;4959165;28;20110;-84
2021/08/25 05:38:15;;;;;;;46.65;27.35;;;;;;;12.04;100.00;102190.66;4978917;28;20031;-82
2021/08/25 05:40:41;;;;;;;39.97;25.02;;;;;;;12.13;100.00;102189.09;4972105;28;20034;-82
2021/08/25 05:43:06;;;;;;;49.30;28.85;;;;;;;12.29;100.00;102190.50;4959632;28;20043;-82
2021/08/25 05:45:32;;;;;;;42.08;25.83;;;;;;;12.38;100.00;102195.88;4958701;28;20537;-82
2021/08/25 05:47:58;;;;;;;48.53;28.20;;;;;;;12.50;100.00;102206.38;4968506;28;20031;-82
2021/08/25 05:50:25;;;;;;;46.03;27.98;;;;;;;12.55;100.00;102196.31;4942759;28;20041;-80
2021/08/25 05:52:51;;;;;;;44.55;27.02;;;;;;;12.68;100.00;102201.41;4961523;28;20419;-82
2021/08/25 05:55:17;;;;;;;36.90;23.95;;;;;;;12.74;100.00;102199.13;4945260;28;20053;-80
2021/08/25 05:57:46;;;;;;;36.90;24.20;;;;;;;12.80;100.00;102185.44;4961545;28;20042;-83
2021/08/25 06:00:16;;;;;;;41.10;25.33;;;;;;;13.03;100.00;102199.38;4945380;28;20099;-85
2021/08/25 06:02:42;;;;;;;39.22;24.50;;;;;;;13.10;100.00;102194.41;4961691;28;20029;-82
2021/08/25 06:05:09;;;;;;;47.15;25.42;;;;;;;13.21;100.00;102194.34;4945385;28;20041;-83
2021/08/25 06:07:35;;;;;;;43.47;24.88;;;;;;;13.31;100.00;102189.16;4995214;28;20049;-82
2021/08/25 06:10:01;;;;;;;47.17;26.25;;;;;;;13.34;100.00;102177.56;4973793;28;20035;-84
2021/08/25 06:12:27;;;;;;;47.22;24.95;;;;;;;13.46;100.00;102180.94;4973952;28;20035;-83
2021/08/25 06:14:52;;;;;;;47.83;26.23;;;;;;;13.50;100.00;102182.34;4941911;28;20065;-81
2021/08/25 06:17:18;;;;;;;43.88;24.05;;;;;;;13.51;100.00;102179.59;4973002;28;20085;-82
2021/08/25 06:19:43;;;;;;;39.75;24.73;;;;;;;13.51;100.00;102174.31;4958792;28;20043;-82
2021/08/25 06:22:09;;;;;;;37.00;23.73;;;;;;;13.53;100.00;102161.00;4942140;28;20034;-82
2021/08/25 06:24:35;;;;;;;37.47;23.25;;;;;;;13.74;100.00;102167.06;4942588;28;20042;-83
2021/08/25 06:27:01;;;;;;;38.60;23.35;;;;;;;13.89;100.00;102169.34;4960014;28;20562;-84
2021/08/25 06:29:26;;;;;;;37.83;23.77;;;;;;;13.95;100.00;102151.16;4976100;28;20062;-83
2021/08/25 06:31:52;;;;;;;31.50;19.60;;;;;;;13.97;100.00;102138.69;4944616;28;20041;-81
2021/08/25 06:34:18;;;;;;;29.40;19.80;;;;;;;14.23;100.00;102154.03;4942959;28;20129;-80
2021/08/25 06:36:43;;;;;;;29.30;18.67;;;;;;;14.47;100.00;102147.53;4941912;28;20046;-82
2021/08/25 06:39:09;;;;;;;32.17;18.27;;;;;;;14.60;100.00;102161.34;4960019;28;20034;-82
2021/08/25 06:41:34;;;;;;;26.45;16.15;;;;;;;14.69;100.00;102151.72;4957437;28;20488;-82
2021/08/25 06:44:00;;;;;;;24.52;16.30;;;;;;;14.84;100.00;102149.50;4987542;28;20468;-82
2021/08/25 06:46:25;;;;;;;24.83;13.73;;;;;;;14.97;100.00;102148.25;4960073;28;20500;-83
2021/08/25 06:48:51;;;;;;;25.15;14.43;;;;;;;15.14;100.00;102145.84;4976317;28;20497;-83
2021/08/25 06:51:17;;;;;;;22.90;13.52;;;;;;;15.34;100.00;102160.69;4959457;28;20073;-84
2021/08/25 06:53:42;;;;;;;24.33;12.45;;;;;;;15.53;100.00;102154.50;4959516;28;20255;-81
2021/08/25 06:56:08;;;;;;;25.27;10.52;;;;;;;15.73;99.70;102144.72;4967679;28;20152;-83
2021/08/25 06:58:33;;;;;;;28.00;10.45;;;;;;;15.83;100.00;102149.13;4956738;28;20062;-81
2021/08/25 07:00:59;;;;;;;23.17;10.98;;;;;;;16.12;99.82;102149.81;4985253;28;20101;-79
2021/08/25 07:03:24;;;;;;;18.88;9.40;;;;;;;16.32;98.95;102142.56;4941036;28;20035;-82
2021/08/25 07:05:50;;;;;;;12.32;9.05;;;;;;;16.30;99.41;102135.75;4951972;28;20034;-82
2021/08/25 07:08:16;;;;;;;14.93;7.63;;;;;;;16.38;97.99;102130.53;4959418;28;20030;-82
2021/08/25 07:10:41;;;;;;;18.45;7.20;;;;;;;16.37;97.79;102128.88;4975796;28;20038;-82
2021/08/25 07:13:07;;;;;;;13.75;6.65;;;;;;;16.60;96.77;102115.19;4959761;28;20034;-82
2021/08/25 07:15:32;;;;;;;15.68;6.63;;;;;;;16.73;97.38;102112.97;4959162;28;20042;-81
2021/08/25 07:17:58;;;;;;;11.60;6.20;;;;;;;16.88;95.29;102111.44;4975527;28;20125;-81
2021/08/25 07:20:24;;;;;;;11.50;5.43;;;;;;;17.10;90.92;102098.66;4972466;28;20036;-81
2021/08/25 07:22:49;;;;;;;12.90;4.95;;;;;;;17.34;88.81;102099.81;4948529;28;20065;-82
2021/08/25 07:25:15;;;;;;;9.02;4.50;;;;;;;17.41;90.41;102114.91;4943318;28;20022;-82
2021/08/25 07:27:40;;;;;;;9.02;4.63;;;;;;;17.22;88.76;102115.97;4959809;28;20068;-82
2021/08/25 07:30:10;;;;;;;11.15;4.40;;;;;;;17.13;91.62;102104.47;4958812;28;20034;-81
2021/08/25 07:32:36;;;;;;;11.57;4.60;;;;;;;17.09;91.94;102097.84;4944839;28;20595;-83
2021/08/25 07:35:03;;;;;;;8.07;3.88;;;;;;;16.92;91.13;102099.56;4948318;28;20310;-84
2021/08/25 07:37:28;;;;;;;7.97;3.75;;;;;;;16.95;92.33;102095.75;4958783;28;20088;-81
2021/08/25 07:39:54;;;;;;;12.68;3.72;;;;;;;17.03;90.52;102085.22;4958137;28;20640;-81
2021/08/25 07:42:19;;;;;;;6.65;3.15;;;;;;;17.17;91.28;102070.53;4968037;28;20125;-81
2021/08/25 07:44:45;;;;;;;7.72;2.97;;;;;;;17.17;91.09;102073.19;4938536;28;20026;-82
2021/08/25 07:47:10;;;;;;;5.20;2.60;;;;;;;17.37;92.53;102071.16;4956731;28;20031;-83
2021/08/25 07:49:36;;;;;;;11.35;3.45;;;;;;;17.65;90.94;102058.47;4990003;28;20456;-83
2021/08/25 07:52:03;;;;;;;5.47;2.90;;;;;;;17.80;89.26;102060.50;4971975;28;20030;-81
2021/08/25 07:54:29;;;;;;;5.45;2.40;;;;;;;17.93;87.90;102058.22;4974393;28;20034;-82
2021/08/25 07:56:54;;;;;;;6.05;2.08;;;;;;;17.88;91.16;102052.59;4969879;28;20034;-82
2021/08/25 07:59:20;;;;;;;6.55;2.65;;;;;;;17.76;88.75;102046.72;4974203;28;20479;-82
2021/08/25 08:01:45;;;;;;;8.55;2.22;;;;;;;18.01;85.02;102055.59;4942995;28;20112;-83
2021/08/25 08:04:11;;;;;;;5.20;1.95;;;;;;;18.04;87.71;102042.00;4941531;28;20033;-82
2021/08/25 08:06:36;;;;;;;7.00;1.90;;;;;;;18.04;84.28;102052.59;4991892;28;20042;-81
2021/08/25 08:09:02;;;;;;;4.57;1.45;;;;;;;17.74;85.33;102045.22;4954059;28;20035;-83
2021/08/25 08:11:28;;;;;;;5.22;1.70;;;;;;;17.49;89.26;102045.97;4955097;28;20073;-82
2021/08/25 08:13:53;;;;;;;8.88;1.83;;;;;;;17.35;88.30;102051.06;4959400;28;20046;-82
2021/08/25 08:16:22;;;;;;;3.72;1.63;;;;;;;17.24;88.53;102060.97;4974081;28;20173;-81
2021/08/25 08:19:02;;;;;;;7.30;2.00;;;;;;;17.18;89.05;102040.41;4991080;28;20576;-85
2021/08/25 08:21:28;;;;;;;2.85;1.40;;;;;;;17.24;88.14;102037.09;4990569;28;20405;-82
2021/08/25 08:23:56;;;;;;;5.70;1.38;;;;;;;17.43;85.03;102045.81;4991904;28;20042;-83
2021/08/25 08:26:22;;;;;;;4.78;1.25;;;;;;;17.48;86.08;102039.03;4976154;28;20424;-81
2021/08/25 08:28:48;;;;;;;6.07;1.40;;;;;;;17.56;82.43;102030.25;4963051;28;20038;-83
2021/08/25 08:31:14;;;;;;;6.93;1.10;;;;;;;17.71;83.77;102022.50;4967929;28;20049;-82
2021/08/25 08:33:39;;;;;;;3.85;1.27;;;;;;;17.95;82.98;102023.56;4961971;28;20053;-80
2021/08/25 08:36:05;;;;;;;3.58;1.27;;;;;;;18.04;83.08;102022.59;4945493;28;20040;-84
2021/08/25 08:38:32;;;;;;;4.13;1.27;;;;;;;17.82;82.42;102034.63;4951539;28;20068;-81
2021/08/25 08:40:58;;;;;;;4.53;1.25;;;;;;;17.70;82.13;102034.09;4959686;28;20027;-81
2021/08/25 08:43:23;;;;;;;4.35;1.20;;;;;;;17.79;86.10;102035.78;4976263;28;20048;-82
2021/08/25 08:45:49;;;;;;;5.40;1.25;;;;;;;18.02;83.74;102027.22;4962683;28;20070;-82
2021/08/25 08:48:16;;;;;;;4.10;1.10;;;;;;;18.22;82.44;102025.91;4942928;28;20129;-81
2021/08/25 08:50:45;;;;;;;2.85;1.20;;;;;;;18.28;84.05;102027.09;4959391;28;20509;-82
2021/08/25 08:53:12;;;;;;;2.70;1.00;;;;;;;18.32;84.18;102016.97;4954542;28;20038;-81
2021/08/25 08:55:38;;;;;;;3.92;1.40;;;;;;;18.34;86.93;102021.09;4962648;28;20381;-82
2021/08/25 08:58:03;;;;;;;3.45;1.13;;;;;;;18.31;80.74;102016.13;4940115;28;20035;-81
2021/08/25 09:00:29;;;;;;;3.83;1.00;;;;;;;18.21;80.70;102008.31;4963485;28;20113;-83
2021/08/25 09:02:55;;;;;;;5.55;1.08;;;;;;;18.21;77.64;102013.63;4960661;28;20117;-82
2021/08/25 09:05:23;;;;;;;2.53;1.15;;;;;;;18.12;78.65;102012.00;4960749;28;20038;-80
2021/08/25 09:08:09;;;;;;;6.32;0.68;;;;;;;18.25;76.07;102001.69;4960582;28;20129;-82
2021/08/25 09:10:39;;;;;;;5.10;0.90;;;;;;;18.19;79.77;101991.72;4960377;28;20034;-81
2021/08/25 09:13:10;;;;;;;4.85;1.00;;;;;;;18.18;81.31;101975.97;4976504;28;20026;-81
2021/08/25 09:15:41;;;;;;;5.40;0.82;;;;;;;18.30;79.96;101979.94;4961171;28;20046;-85
2021/08/25 09:18:14;;;;;;;4.80;0.70;;;;;;;18.36;78.76;101970.47;4945133;28;20046;-83
2021/08/25 09:20:46;;;;;;;1.38;0.80;;;;;;;18.74;77.20;101973.38;4961356;28;20037;-84
2021/08/25 09:23:19;;;;;;;3.00;0.70;;;;;;;18.89;74.54;101973.53;4970128;28;20516;-83
2021/08/25 09:25:49;;;;;;;5.70;0.75;;;;;;;18.58;74.88;101967.09;4957944;28;20157;-82
2021/08/25 09:28:17;;;;;;;4.15;1.10;;;;;;;18.36;79.58;101960.66;4953899;28;20042;-81
2021/08/25 09:30:54;;;;;;;4.53;0.85;;;;;;;18.14;77.63;101956.88;4957516;28;20031;-80
2021/08/25 09:33:21;;;;;;;3.03;0.95;;;;;;;17.71;81.22;101946.38;4956938;28;20133;-82
2021/08/25 09:35:47;;;;;;;2.45;0.73;;;;;;;17.76;81.29;101972.41;4954229;28;20034;-81
2021/08/25 09:38:20;;;;;;;6.28;0.70;;;;;;;17.61;82.46;101968.75;4952559;28;20038;-82
2021/08/25 09:40:51;;;;;;;2.38;0.60;;;;;;;17.94;87.67;101961.69;4957040;28;20062;-83
2021/08/25 09:43:37;;;;;;;3.83;0.90;;;;;;;18.22;83.86;101967.50;4946292;28;20030;-82
2021/08/25 09:46:10;;;;;;;4.30;0.85;;;;;;;18.56;77.38;101961.13;4977251;28;20038;-83
2021/08/25 09:48:41;;;;;;;3.50;0.60;;;;;;;18.64;75.52;101953.13;4944600;28;20053;-81
2021/08/25 09:51:08;;;;;;;5.20;0.70;;;;;;;18.70;77.42;101948.97;4976962;28;20053;-82
2021/08/25 09:53:34;;;;;;;1.52;0.50;;;;;;;18.50;76.04;101951.19;4967337;28;20030;-84
2021/08/25 09:56:00;;;;;;;2.15;0.60;;;;;;;18.60;78.35;101956.31;4946223;28;20445;-82
2021/08/25 09:58:26;;;;;;;2.47;0.75;;;;;;;18.45;76.31;101934.94;4961362;28;20065;-83
2021/08/25 10:00:53;;;;;;;2.22;0.55;;;;;;;18.33;75.62;101931.81;4944636;28;20066;-83
2021/08/25 10:03:19;;;;;;;1.88;0.40;;;;;;;18.58;76.84;101921.94;4972887;28;20035;-82
2021/08/25 10:05:46;;;;;;;2.97;0.60;;;;;;;18.94;76.20;101932.13;4943601;28;20042;-82
2021/08/25 10:08:14;;;;;;;2.88;0.43;;;;;;;19.01;74.80;101922.47;4942965;28;20476;-82
2021/08/25 10:10:41;;;;;;;4.47;0.57;;;;;;;18.91;76.25;101903.25;4959852;28;20030;-82
2021/08/25 10:13:07;;;;;;;2.05;0.65;;;;;;;18.79;76.94;101907.25;4975698;28;20042;-82
2021/08/25 10:15:40;;;;;;;4.25;0.60;;;;;;;18.38;77.32;101896.75;4959620;28;20101;-82
2021/08/25 10:18:21;;;;;;;2.38;0.80;;;;;;;18.41;77.03;101894.59;4942225;28;20141;-84
2021/08/25 10:20:47;;;;;;;3.33;0.70;;;;;;;18.81;80.83;101879.53;4968859;28;20038;-82
2021/08/25 10:23:13;;;;;;;4.43;0.88;;;;;;;19.23;75.39;101869.47;4943836;28;20041;-82
2021/08/25 10:26:03;;;;;;;4.38;0.80;;;;;;;19.11;76.79;101889.53;4943676;28;20034;-83
2021/08/25 10:28:58;;;;;;;1.75;0.50;;;;;;;18.97;77.55;101889.28;4978090;28;20503;-81
2021/08/25 10:31:23;;;;;;;4.82;0.77;;;;;;;18.78;77.27;101887.84;4959449;28;20154;-82
2021/08/25 10:34:11;;;;;;;2.90;0.65;;;;;;;18.55;77.55;101873.63;4944078;28;20125;-82
2021/08/25 10:36:37;;;;;;;6.00;0.80;;;;;;;18.23;77.57;101878.03;4959450;28;20029;-83
2021/08/25 10:39:02;;;;;;;4.93;0.77;;;;;;;17.80;79.35;101859.66;4943417;28;20046;-84
2021/08/25 10:41:28;;;;;;;5.25;0.90;;;;;;;17.71;78.73;101865.97;4938614;28;20025;-84
2021/08/25 10:43:55;;;;;;;4.80;0.90;;;;;;;17.74;79.08;101852.34;4975526;28;20129;-80
2021/08/25 10:46:21;;;;;;;4.75;0.95;;;;;;;17.83;78.48;101861.97;4958965;28;20066;-82
2021/08/25 10:48:56;;;;;;;3.05;0.90;;;;;;;17.98;76.47;101850.72;4943856;28;20447;-82
2021/08/25 10:51:23;;;;;;;4.88;0.88;;;;;;;18.08;77.55;101838.06;4935710;28;20035;-81
2021/08/25 10:53:48;;;;;;;2.97;0.90;;;;;;;18.19;83.45;101837.72;4975676;28;20065;-83
2021/08/25 10:56:25;;;;;;;2.88;0.90;;;;;;;18.14;80.71;101832.09;4993136;28;20035;-82
2021/08/25 10:58:59;;;;;;;3.47;1.05;;;;;;;18.08;77.29;101828.31;4960178;28;20046;-83
2021/08/25 11:01:31;;;;;;;4.47;0.82;;;;;;;18.03;77.09;101832.47;4943564;28;20068;-83
2021/08/25 11:04:12;;;;;;;5.72;0.80;;;;;;;17.78;77.43;101835.13;4959843;28;20042;-83
2021/08/25 11:06:55;;;;;;;3.47;0.75;;;;;;;17.82;75.59;101831.13;4943695;28;20396;-83
2021/08/25 11:09:31;;;;;;;5.22;1.05;;;;;;;17.98;75.74;101826.81;4957075;28;20034;-84
2021/08/25 11:12:01;;;;;;;2.45;0.55;;;;;;;18.09;74.65;101821.97;4933096;28;20049;-82
2021/08/25 11:14:30;;;;;;;2.58;0.52;;;;;;;18.12;74.70;101799.59;4951717;28;20042;-81